createdAt,value
2018-08-23T00:00:11.929Z,98.50
2018-08-23T00:02:39.233Z,98.60
2018-08-23T00:05:06.575Z,98.70
2018-08-23T00:07:33.873Z,98.80
2018-08-23T00:10:01.897Z,99.10
2018-08-23T00:12:40.809Z,99.40
2018-08-23T00:15:09.022Z,99.80
2018-08-23T00:17:40.859Z,99.70
2018-08-23T00:20:08.237Z,99.90
2018-08-23T00:22:35.529Z,99.80
2018-08-23T00:25:02.826Z,99.80
2018-08-23T00:27:31.068Z,98.80
2018-08-23T00:29:58.350Z,98.70
2018-08-23T00:32:25.821Z,98.70
2018-08-23T00:34:53.110Z,99.00
2018-08-23T00:37:20.439Z,99.10
2018-08-23T00:39:47.713Z,99.20
2018-08-23T00:42:15.003Z,99.50
2018-08-23T00:45:01.669Z,99.30
2018-08-23T00:47:31.126Z,99.30
2018-08-23T00:49:58.562Z,99.50
2018-08-23T00:52:46.002Z,99.70
2018-08-23T00:55:23.367Z,99.50
2018-08-23T00:57:50.722Z,99.80
2018-08-23T01:00:19.640Z,99.90
2018-08-23T01:02:54.312Z,99.90
2018-08-23T01:05:27.291Z,99.90
2018-08-23T01:07:54.579Z,99.90
2018-08-23T01:10:21.839Z,99.90
2018-08-23T01:12:54.390Z,99.90
2018-08-23T01:15:21.690Z,99.90
2018-08-23T01:17:53.601Z,99.90
2018-08-23T01:20:20.871Z,99.90
2018-08-23T01:22:59.256Z,99.90
2018-08-23T01:25:29.698Z,99.90
2018-08-23T01:27:56.973Z,99.90
2018-08-23T01:30:24.248Z,99.90
2018-08-23T01:32:51.551Z,99.90
2018-08-23T01:35:18.817Z,99.90
2018-08-23T01:37:46.090Z,99.90
2018-08-23T01:40:13.358Z,99.90
2018-08-23T01:42:41.467Z,99.90
2018-08-23T01:45:09.924Z,99.90
2018-08-23T01:47:43.404Z,99.90
2018-08-23T01:50:11.761Z,99.90
2018-08-23T01:52:48.059Z,99.90
2018-08-23T01:55:16.006Z,99.90
2018-08-23T01:57:43.599Z,99.90
2018-08-23T02:00:11.882Z,99.90
2018-08-23T02:02:39.198Z,99.90
2018-08-23T02:05:06.818Z,99.90
2018-08-23T02:07:34.133Z,99.90
2018-08-23T02:10:01.377Z,99.90
2018-08-23T02:12:28.620Z,99.90
2018-08-23T02:14:59.752Z,99.90
2018-08-23T02:17:27.084Z,99.90
2018-08-23T02:19:54.326Z,99.90
2018-08-23T02:22:21.601Z,99.90
2018-08-23T02:24:48.876Z,99.90
2018-08-23T02:27:17.627Z,99.90
2018-08-23T02:29:46.812Z,99.90
2018-08-23T02:32:14.013Z,99.90
2018-08-23T02:34:42.617Z,99.90
2018-08-23T02:37:11.819Z,99.90
2018-08-23T02:39:39.222Z,99.90
2018-08-23T02:42:06.556Z,99.90
2018-08-23T02:44:33.827Z,99.90
2018-08-23T02:47:02.615Z,99.90
2018-08-23T02:49:30.288Z,99.90
2018-08-23T02:51:57.553Z,99.90
2018-08-23T02:54:24.852Z,99.90
2018-08-23T02:56:55.345Z,99.90
2018-08-23T02:59:23.164Z,99.90
2018-08-23T03:01:50.696Z,99.90
2018-08-23T03:04:22.370Z,99.90
2018-08-23T03:06:54.984Z,99.90
2018-08-23T03:09:24.207Z,99.90
2018-08-23T03:11:53.522Z,99.90
2018-08-23T03:14:21.683Z,99.90
2018-08-23T03:16:54.290Z,99.90
2018-08-23T03:19:21.601Z,99.90
2018-08-23T03:21:57.634Z,99.90
2018-08-23T03:24:24.928Z,99.90
2018-08-23T03:26:52.264Z,99.90
2018-08-23T03:29:19.537Z,99.90
2018-08-23T03:31:46.899Z,99.90
2018-08-23T03:34:14.102Z,99.90
2018-08-23T03:36:41.356Z,99.90
2018-08-23T03:39:09.075Z,99.90
2018-08-23T03:41:36.468Z,99.90
2018-08-23T03:44:04.905Z,99.90
2018-08-23T03:46:43.298Z,99.90
2018-08-23T03:49:10.563Z,99.90
2018-08-23T03:51:37.865Z,99.90
2018-08-23T03:54:05.324Z,99.90
2018-08-23T03:56:32.559Z,99.90
2018-08-23T03:58:59.796Z,99.90
2018-08-23T04:01:27.036Z,99.90
2018-08-23T04:03:54.348Z,99.90
2018-08-23T04:06:36.248Z,99.90
2018-08-23T04:09:07.121Z,99.90
2018-08-23T04:11:34.346Z,99.90
2018-08-23T04:14:01.649Z,99.90
2018-08-23T04:16:30.307Z,99.90
2018-08-23T04:18:57.587Z,99.90
2018-08-23T04:21:25.361Z,99.90
2018-08-23T04:23:52.726Z,99.90
2018-08-23T04:26:20.375Z,99.90
2018-08-23T04:28:47.697Z,99.90
2018-08-23T04:31:15.132Z,99.90
2018-08-23T04:33:42.411Z,99.90
2018-08-23T04:36:26.250Z,99.90
2018-08-23T04:38:59.424Z,99.90
2018-08-23T04:41:27.558Z,99.90
2018-08-23T04:43:58.549Z,99.90
2018-08-23T04:46:25.840Z,99.90
2018-08-23T04:48:53.093Z,99.90
2018-08-23T04:51:20.365Z,99.90
2018-08-23T04:53:47.595Z,99.90
2018-08-23T04:56:14.887Z,99.90
2018-08-23T04:58:42.178Z,99.90
2018-08-23T05:01:09.582Z,99.90
2018-08-23T05:03:36.829Z,99.90
2018-08-23T05:06:04.174Z,99.90
2018-08-23T05:08:31.451Z,99.90
2018-08-23T05:10:58.707Z,99.90
2018-08-23T05:13:26.056Z,99.90
2018-08-23T05:15:53.341Z,99.90
2018-08-23T05:18:20.605Z,99.90
2018-08-23T05:20:47.846Z,99.90
2018-08-23T05:23:15.273Z,99.90
2018-08-23T05:25:42.561Z,99.90
2018-08-23T05:28:13.353Z,99.90
2018-08-23T05:30:41.558Z,99.90
2018-08-23T05:33:17.381Z,99.90
2018-08-23T05:35:44.803Z,99.90
2018-08-23T05:38:12.407Z,99.90
2018-08-23T05:40:43.639Z,99.90
2018-08-23T05:43:11.525Z,99.90
2018-08-23T05:45:44.340Z,99.90
2018-08-23T05:48:29.409Z,99.90
2018-08-23T05:50:57.289Z,99.90
2018-08-23T05:53:24.557Z,99.90
2018-08-23T05:55:53.277Z,99.90
2018-08-23T05:58:26.482Z,99.90
2018-08-23T06:00:53.819Z,99.90
2018-08-23T06:03:21.105Z,99.90
2018-08-23T06:05:49.064Z,99.90
2018-08-23T06:08:16.426Z,99.90
2018-08-23T06:10:46.041Z,99.90
2018-08-23T06:13:13.588Z,99.90
2018-08-23T06:15:45.723Z,99.90
2018-08-23T06:18:14.826Z,99.90
2018-08-23T06:20:42.112Z,99.90
2018-08-23T06:23:09.377Z,99.90
2018-08-23T06:25:36.802Z,99.90
2018-08-23T06:28:14.386Z,99.90
2018-08-23T06:30:41.626Z,99.90
2018-08-23T06:33:09.196Z,99.90
2018-08-23T06:35:40.145Z,99.90
2018-08-23T06:38:07.925Z,99.90
2018-08-23T06:40:35.449Z,99.90
2018-08-23T06:43:03.622Z,99.90
2018-08-23T06:45:30.950Z,99.90
2018-08-23T06:48:01.888Z,99.90
2018-08-23T06:50:29.182Z,99.90
2018-08-23T06:52:56.478Z,99.90
2018-08-23T06:55:27.967Z,99.90
2018-08-23T06:58:00.255Z,99.90
2018-08-23T07:00:27.784Z,99.90
2018-08-23T07:02:55.297Z,99.90
2018-08-23T07:05:22.724Z,99.90
2018-08-23T07:07:50.273Z,99.90
2018-08-23T07:10:17.540Z,99.90
2018-08-23T07:12:44.920Z,99.90
2018-08-23T07:15:12.204Z,99.90
2018-08-23T07:17:39.560Z,99.90
2018-08-23T07:20:10.692Z,99.90
2018-08-23T07:22:37.959Z,99.90
2018-08-23T07:25:08.340Z,99.90
2018-08-23T07:27:35.736Z,99.90
2018-08-23T07:30:04.795Z,99.90
2018-08-23T07:32:31.854Z,99.90
2018-08-23T07:35:15.552Z,99.90
2018-08-23T07:37:44.153Z,99.90
2018-08-23T07:40:12.769Z,99.90
2018-08-23T07:42:41.598Z,99.90
2018-08-23T07:45:09.311Z,99.90
2018-08-23T07:47:41.045Z,99.90
2018-08-23T07:50:08.379Z,99.90
2018-08-23T07:52:36.576Z,99.90
2018-08-23T07:55:05.100Z,99.90
2018-08-23T07:57:33.899Z,99.90
2018-08-23T08:00:03.026Z,99.90
2018-08-23T08:02:30.462Z,99.90
2018-08-23T08:04:58.264Z,99.90
2018-08-23T08:07:26.615Z,99.90
2018-08-23T08:09:53.988Z,99.90
2018-08-23T08:12:32.571Z,99.90
2018-08-23T08:14:59.974Z,99.90
2018-08-23T08:17:31.629Z,99.90
2018-08-23T08:19:59.226Z,99.90
2018-08-23T08:22:26.555Z,99.90
2018-08-23T08:25:09.099Z,99.90
2018-08-23T08:27:37.079Z,99.90
2018-08-23T08:30:05.888Z,99.90
2018-08-23T08:32:33.146Z,99.90
2018-08-23T08:35:00.485Z,99.90
2018-08-23T08:37:28.219Z,99.90
2018-08-23T08:39:55.885Z,99.90
2018-08-23T08:42:31.449Z,99.90
2018-08-23T08:45:07.209Z,99.90
2018-08-23T08:47:34.565Z,99.90
2018-08-23T08:50:01.928Z,99.90
2018-08-23T08:52:29.750Z,99.90
2018-08-23T08:54:57.045Z,99.90
2018-08-23T08:57:25.396Z,99.90
2018-08-23T08:59:53.237Z,99.90
2018-08-23T09:02:21.391Z,99.90
2018-08-23T09:04:48.742Z,99.90
2018-08-23T09:07:16.373Z,99.90
2018-08-23T09:09:43.789Z,99.90
2018-08-23T09:12:11.917Z,99.90
2018-08-23T09:14:40.221Z,99.90
2018-08-23T09:17:24.786Z,99.90
2018-08-23T09:20:06.612Z,99.90
2018-08-23T09:22:35.846Z,99.90
2018-08-23T09:25:05.119Z,99.90
2018-08-23T09:27:32.397Z,99.90
2018-08-23T09:30:00.775Z,99.90
2018-08-23T09:32:28.963Z,99.90
2018-08-23T09:35:00.507Z,99.90
2018-08-23T09:37:28.719Z,99.90
2018-08-23T09:39:55.996Z,99.90
2018-08-23T09:42:23.416Z,99.90
2018-08-23T09:45:17.951Z,99.90
2018-08-23T09:47:45.258Z,99.90
2018-08-23T09:50:12.777Z,99.90
2018-08-23T09:52:41.800Z,99.90
2018-08-23T09:55:11.614Z,99.90
2018-08-23T09:57:39.072Z,99.90
2018-08-23T10:00:07.951Z,99.90
2018-08-23T10:02:41.048Z,99.90
2018-08-23T10:05:14.021Z,99.90
2018-08-23T10:07:47.188Z,99.90
2018-08-23T10:11:20.795Z,99.90
2018-08-23T10:13:53.673Z,99.90
2018-08-23T10:16:27.193Z,99.90
2018-08-23T10:18:56.367Z,99.90
2018-08-23T10:21:29.494Z,99.90
2018-08-23T10:24:10.247Z,99.90
2018-08-23T10:26:37.667Z,99.90
2018-08-23T10:29:05.015Z,99.90
2018-08-23T10:31:33.437Z,99.90
2018-08-23T10:34:00.732Z,99.90
2018-08-23T10:36:27.977Z,99.90
2018-08-23T10:38:55.349Z,99.90
2018-08-23T10:41:22.974Z,99.90
2018-08-23T10:43:51.150Z,99.90
2018-08-23T10:46:18.467Z,99.90
2018-08-23T10:48:45.908Z,99.90
2018-08-23T10:51:13.300Z,99.90
2018-08-23T10:53:41.449Z,99.90
2018-08-23T10:56:11.326Z,99.90
2018-08-23T10:58:38.769Z,99.90
2018-08-23T11:01:07.693Z,99.90
2018-08-23T11:03:40.038Z,99.90
2018-08-23T11:06:07.425Z,99.90
2018-08-23T11:08:36.264Z,99.90
2018-08-23T11:11:09.164Z,99.90
2018-08-23T11:13:43.538Z,99.90
2018-08-23T11:16:16.616Z,99.90
2018-08-23T11:18:49.563Z,99.90
2018-08-23T11:21:17.510Z,99.90
2018-08-23T11:23:45.324Z,99.90
2018-08-23T11:26:18.507Z,99.90
2018-08-23T11:28:47.533Z,99.90
2018-08-23T11:31:20.559Z,99.90
2018-08-23T11:33:47.864Z,99.90
2018-08-23T11:36:15.238Z,99.90
2018-08-23T11:38:42.555Z,99.90
2018-08-23T11:41:09.946Z,99.90
2018-08-23T11:43:37.336Z,99.90
2018-08-23T11:46:11.174Z,99.90
2018-08-23T11:48:38.499Z,99.90
2018-08-23T11:51:05.776Z,99.90
2018-08-23T11:53:33.207Z,99.90
2018-08-23T11:56:00.955Z,99.90
2018-08-23T11:58:28.208Z,99.90
2018-08-23T12:01:01.271Z,99.90
2018-08-23T12:03:28.573Z,99.90
2018-08-23T12:05:55.883Z,99.90
2018-08-23T12:08:23.179Z,99.90
2018-08-23T12:10:50.545Z,99.90
2018-08-23T12:13:17.994Z,99.90
2018-08-23T12:15:45.269Z,99.90
2018-08-23T12:18:12.741Z,99.90
2018-08-23T12:20:40.029Z,99.90
2018-08-23T12:23:07.271Z,99.90
2018-08-23T12:25:34.548Z,99.90
2018-08-23T12:28:06.420Z,99.90
2018-08-23T12:30:33.778Z,99.90
2018-08-23T12:33:01.042Z,99.90
2018-08-23T12:35:28.785Z,99.90
2018-08-23T12:38:02.041Z,99.90
2018-08-23T12:40:35.873Z,99.90
2018-08-23T12:43:05.645Z,99.90
2018-08-23T12:45:32.962Z,99.90
2018-08-23T12:48:00.537Z,99.90
2018-08-23T12:50:27.790Z,99.90
2018-08-23T12:52:55.093Z,99.90
2018-08-23T12:55:23.391Z,99.90
2018-08-23T12:57:50.913Z,99.90
2018-08-23T13:00:18.236Z,99.90
2018-08-23T13:02:45.797Z,99.90
2018-08-23T13:05:14.458Z,99.90
2018-08-23T13:07:41.753Z,99.90
2018-08-23T13:10:09.014Z,99.90
2018-08-23T13:12:37.215Z,99.90
2018-08-23T13:15:04.513Z,99.90
2018-08-23T13:17:31.900Z,99.90
2018-08-23T13:19:59.119Z,99.90
2018-08-23T13:22:44.516Z,99.90
2018-08-23T13:25:13.040Z,99.90
2018-08-23T13:27:40.585Z,99.90
2018-08-23T13:30:07.883Z,99.90
2018-08-23T13:32:35.107Z,99.90
2018-08-23T13:35:02.598Z,99.90
2018-08-23T13:37:29.916Z,99.90
2018-08-23T13:39:57.209Z,99.90
2018-08-23T13:42:24.496Z,99.90
2018-08-23T13:44:52.335Z,99.90
2018-08-23T13:47:20.885Z,99.90
2018-08-23T13:49:48.357Z,99.90
2018-08-23T13:52:15.633Z,99.90
2018-08-23T13:54:43.626Z,99.90
2018-08-23T13:57:10.943Z,99.90
2018-08-23T13:59:38.174Z,99.90
2018-08-23T14:02:05.512Z,99.90
2018-08-23T14:04:32.731Z,99.90
2018-08-23T14:07:00.008Z,99.90
2018-08-23T14:09:27.257Z,99.90
2018-08-23T14:11:54.660Z,99.90
2018-08-23T14:14:22.144Z,99.90
2018-08-23T14:16:49.488Z,99.90
2018-08-23T14:19:16.912Z,99.90
2018-08-23T14:21:44.198Z,99.90
2018-08-23T14:24:11.445Z,99.90
2018-08-23T14:26:38.678Z,99.90
2018-08-23T14:29:05.920Z,99.90
2018-08-23T14:31:33.177Z,99.90
2018-08-23T14:34:00.471Z,99.90
2018-08-23T14:36:27.732Z,99.90
2018-08-23T14:38:54.995Z,99.90
2018-08-23T14:41:22.376Z,99.90
2018-08-23T14:43:49.704Z,99.90
2018-08-23T14:46:22.677Z,99.90
2018-08-23T14:48:49.961Z,99.90
2018-08-23T14:51:17.848Z,99.90
2018-08-23T14:53:46.247Z,99.90
2018-08-23T14:56:20.398Z,99.90
2018-08-23T14:58:47.710Z,99.90
2018-08-23T15:01:14.977Z,99.90
2018-08-23T15:03:42.222Z,99.90
2018-08-23T15:06:09.625Z,99.90
2018-08-23T15:08:36.889Z,99.90
2018-08-23T15:11:04.197Z,99.90
2018-08-23T15:13:31.457Z,99.90
2018-08-23T15:15:58.673Z,99.90
2018-08-23T15:18:26.960Z,99.90
2018-08-23T15:20:54.260Z,99.90
2018-08-23T15:23:21.467Z,99.90
2018-08-23T15:25:48.711Z,99.90
2018-08-23T15:28:15.945Z,99.90
2018-08-23T15:30:43.183Z,99.90
2018-08-23T15:33:10.592Z,99.90
2018-08-23T15:35:37.801Z,99.90
2018-08-23T15:38:05.339Z,99.90
2018-08-23T15:40:32.620Z,99.90
2018-08-23T15:42:59.885Z,99.90
2018-08-23T15:45:27.162Z,99.90
2018-08-23T15:47:54.466Z,99.90
2018-08-23T15:50:22.348Z,99.90
2018-08-23T15:52:50.076Z,99.90
2018-08-23T15:55:17.868Z,99.90
2018-08-23T15:57:45.154Z,99.90
2018-08-23T16:00:12.477Z,99.90
2018-08-23T16:02:39.701Z,99.90
2018-08-23T16:05:06.986Z,99.90
2018-08-23T16:07:34.219Z,99.90
2018-08-23T16:10:01.617Z,99.90
2018-08-23T16:12:28.893Z,99.90
2018-08-23T16:14:56.345Z,99.90
2018-08-23T16:17:29.410Z,99.90
2018-08-23T16:20:02.301Z,99.90
2018-08-23T16:22:29.561Z,99.90
2018-08-23T16:24:56.849Z,99.90
2018-08-23T16:27:24.057Z,99.90
2018-08-23T16:29:52.495Z,99.90
2018-08-23T16:32:25.311Z,99.90
2018-08-23T16:34:52.825Z,99.90
2018-08-23T16:37:20.175Z,99.90
